Latest Weather Observations for Swan Hill

IDV60801

Issued at 8:52 pm EST Sunday 3 July 2022 (issued every 10 minutes, with the page automatically refreshed every 10 minutes)

About weather observations | Map of weather stations | Latest weather observations for VIC | Other Formats
Station Details ID: 077094 Name: SWAN HILL AERODROME Lat: -35.38 Lon: 143.54 Height: 71.0 m
Data from the previous 72 hours. | See also: Recent months at Swan Hill
Date/Time
EST
Temp
°C
App
Temp
°C
Dew
Point
°C
Rel
Hum
%
Delta-T
°C
Wind Press
QNH
hPa
Press
MSL
hPa
Rain since
9am
mm
Dir  Spd
km/h
Gust
km/h
Spd
kts
Gust
kts
03/08:30pm 7.1 3.0 4.1 81 1.3 S 15 20 8 11 1024.6 1024.7 0.0
03/08:00pm 7.1 3.4 4.2 82 1.2 S 13 19 7 10 1024.5 1024.6 0.0
03/07:30pm 7.5 3.7 4.1 79 1.5 SSW 13 19 7 10 1024.3 1024.4 0.0
03/07:00pm 7.9 4.7 3.2 72 2.0 SSW 9 13 5 7 1024.3 1024.4 0.0
03/06:30pm 8.4 5.2 3.3 70 2.2 SSW 9 15 5 8 1024.1 1024.2 0.0
03/06:00pm 9.1 6.3 3.3 67 2.5 S 7 9 4 5 1023.9 1024.0 0.0
03/05:30pm 10.6 7.8 3.4 61 3.2 SSE 7 11 4 6 1023.7 1023.8 0.0
03/05:00pm 12.1 9.0 3.6 56 3.8 SSE 9 15 5 8 1023.6 1023.7 0.0
03/04:30pm 12.9 9.0 3.3 52 4.3 SSE 13 20 7 11 1023.8 1023.9 0.0
03/04:00pm 13.4 8.7 2.9 49 4.6 S 17 28 9 15 1023.7 1023.8 0.0
03/03:30pm 13.5 8.9 3.6 51 4.5 S 17 26 9 14 1023.7 1023.8 0.0
03/03:00pm 13.4 8.8 3.5 51 4.4 S 17 26 9 14 1023.4 1023.5 0.0
03/02:30pm 13.3 8.7 3.7 52 4.3 S 17 32 9 17 1023.3 1023.4 0.0
03/02:00pm 13.1 8.2 4.0 54 4.1 SSE 19 30 10 16 1023.8 1023.9 0.0
03/01:30pm 12.7 7.8 4.2 56 3.9 SSE 19 26 10 14 1024.2 1024.3 0.0
03/01:00pm 12.0 7.0 4.5 60 3.4 SSE 20 30 11 16 1024.6 1024.7 0.0
03/12:30pm 11.7 6.8 4.2 60 3.4 SSE 19 30 10 16 1025.1 1025.2 0.0
03/12:00pm 11.1 6.0 4.1 62 3.1 SSE 20 32 11 17 1025.4 1025.5 0.0
03/11:30am 10.6 5.7 5.2 69 2.5 SSE 20 32 11 17 1025.7 1025.8 0.0
03/11:00am 9.6 4.2 4.4 70 2.3 SSE 22 32 12 17 1025.8 1025.9 0.0
03/10:30am 9.4 4.6 4.6 72 2.1 SSE 19 28 10 15 1026.0 1026.1 0.0
03/10:00am 8.3 3.3 4.7 78 1.6 SSE 20 30 11 16 1026.1 1026.2 0.0
03/09:30am 7.0 2.6 4.8 86 1.0 S 17 24 9 13 1026.1 1026.2 0.0
03/09:00am 5.0 1.2 4.1 94 0.4 S 13 22 7 12 1026.2 1026.3 0.2
03/08:30am 3.3 -0.3 3.2 99 0.0 S 11 17 6 9 1026.1 1026.2 0.2
03/08:00am 2.1 -1.7 2.0 99 0.0 S 11 15 6 8 1025.9 1026.0 0.2
03/07:30am 1.7 -1.7 1.6 99 0.0 SSE 9 13 5 7 1025.9 1026.0 0.2
03/07:00am 2.3 -1.4 2.2 99 0.0 S 11 15 6 8 1025.6 1025.7 0.0
03/06:30am 2.3 -1.4 2.2 99 0.0 S 11 15 6 8 1025.5 1025.6 0.0
03/06:00am 1.9 -1.5 1.8 99 0.0 S 9 13 5 7 1025.2 1025.3 0.0
03/05:30am 2.1 -2.0 2.0 99 0.0 S 13 19 7 10 1025.0 1025.1 0.0
03/05:00am 1.7 -2.1 1.6 99 0.0 SSW 11 15 6 8 1025.3 1025.4 0.0
03/04:30am 1.9 -1.5 1.8 99 0.0 S 9 13 5 7 1025.5 1025.6 0.0
03/04:00am 2.4 -0.9 2.3 99 0.0 SSW 9 13 5 7 1025.4 1025.5 0.0
03/03:30am 2.5 -1.2 2.4 99 0.0 SSW 11 15 6 8 1025.5 1025.6 0.0
03/03:00am 2.4 -1.3 2.3 99 0.0 SSW 11 13 6 7 1025.6 1025.7 0.0
03/02:30am 2.7 -0.6 2.3 97 0.2 SSW 9 15 5 8 1026.1 1026.2 0.0
03/02:00am 3.0 -0.7 2.4 96 0.2 SSW 11 15 6 8 1026.1 1026.2 0.0
03/01:30am 2.7 -0.7 2.1 96 0.2 S 9 11 5 6 1026.2 1026.3 0.0
03/01:00am 3.0 0.0 2.1 94 0.4 S 7 9 4 5 1026.4 1026.6 0.0
03/12:30am 3.7 0.4 2.4 91 0.5 S 9 15 5 8 1026.4 1026.6 0.0
03/12:00am 4.1 0.1 2.9 92 0.5 SSW 13 19 7 10 1026.2 1026.3 0.0
 
Date/Time
EST
Temp
°C
App
Temp
°C
Dew
Point
°C
Rel
Hum
%
Delta-T
°C
Wind Press
QNH
hPa
Press
MSL
hPa
Rain since
9am
mm
Dir  Spd
km/h
Gust
km/h
Spd
kts
Gust
kts
02/11:30pm 4.2 0.2 3.0 92 0.5 SSW 13 19 7 10 1026.5 1026.7 0.0
02/11:00pm 3.8 0.1 2.6 92 0.5 SSW 11 17 6 9 1026.7 1026.9 0.0
02/10:30pm 4.2 1.0 2.9 91 0.5 S 9 11 5 6 1026.8 1027.0 0.0
02/10:00pm 4.9 1.3 3.2 89 0.7 S 11 15 6 8 1026.8 1027.0 0.0
02/09:30pm 5.7 1.8 3.4 85 1.0 SSW 13 19 7 10 1026.9 1027.1 0.0
02/09:00pm 6.3 2.1 3.8 84 1.1 SSW 15 22 8 12 1026.7 1026.9 0.0
02/08:30pm 6.5 2.7 4.0 84 1.1 SSW 13 20 7 11 1026.9 1027.1 0.0
02/08:00pm 6.0 2.5 3.7 85 1.0 SSW 11 13 6 7 1027.0 1027.2 0.0
02/07:30pm 6.5 3.9 4.0 84 1.1 S 7 11 4 6 1027.2 1027.4 0.0
02/07:00pm 7.3 4.3 4.1 80 1.4 S 9 13 5 7 1027.0 1027.2 0.0
02/06:30pm 8.2 4.8 4.0 75 1.8 SSW 11 15 6 8 1026.7 1026.9 0.0
02/06:00pm 9.2 5.4 3.8 69 2.3 SSW 13 17 7 9 1026.5 1026.7 0.0
02/05:30pm 10.4 6.6 3.7 63 3.0 SSW 13 19 7 10 1026.3 1026.4 0.0
02/05:00pm 11.8 7.9 3.6 57 3.6 SSW 13 19 7 10 1026.3 1026.4 0.0
02/04:30pm 12.6 8.1 4.1 56 3.9 SSW 17 28 9 15 1026.1 1026.2 0.0
02/04:00pm 13.1 8.6 4.3 55 4.0 SSW 17 28 9 15 1026.1 1026.2 0.0
02/03:30pm 12.7 8.1 3.9 55 4.0 SSW 17 24 9 13 1026.3 1026.4 0.0
02/03:00pm 12.9 8.8 4.1 55 4.0 S 15 24 8 13 1026.4 1026.6 0.0
02/02:30pm 12.8 8.4 4.8 58 3.7 SSE 17 24 9 13 1026.8 1027.0 0.0
02/02:00pm 13.1 8.9 5.8 61 3.4 S 17 24 9 13 1026.9 1027.1 0.0
02/01:30pm 12.2 7.4 4.7 60 3.4 S 19 28 10 15 1027.1 1027.3 0.0
02/01:00pm 12.3 8.1 5.7 64 3.1 S 17 26 9 14 1027.6 1027.8 0.0
02/12:30pm 11.9 7.4 6.0 67 2.8 S 19 28 10 15 1028.1 1028.3 0.0
02/12:00pm 11.0 6.7 5.3 68 2.6 SSE 17 24 9 13 1028.6 1028.8 0.0
02/11:30am 10.6 6.8 5.8 72 2.2 SSE 15 22 8 12 1029.1 1029.3 0.0
02/11:00am 9.8 6.0 6.0 77 1.7 SSE 15 22 8 12 1029.2 1029.4 0.0
02/10:30am 8.9 4.9 5.1 77 1.7 S 15 22 8 12 1029.6 1029.8 0.0
02/10:00am 7.2 4.4 5.3 88 0.8 S 9 15 5 8 1029.7 1029.9 0.0
02/09:30am 5.9 2.6 4.4 90 0.6 SSW 11 17 6 9 1029.7 1029.9 0.0
02/09:00am 4.4 1.8 4.1 98 0.1 SSW 7 11 4 6 1029.6 1029.8 0.0
02/08:30am 3.3 0.5 3.2 99 0.0 SSW 7 11 4 6 1029.5 1029.7 0.0
02/08:00am 2.4 -0.6 2.3 99 0.0 SSW 7 11 4 6 1029.4 1029.6 0.0
02/07:30am 2.1 -1.3 2.0 99 0.0 SSW 9 13 5 7 1029.1 1029.3 0.0
02/07:00am 2.4 -1.3 2.3 99 0.0 S 11 17 6 9 1029.0 1029.2 0.0
02/06:30am 2.5 -0.8 2.4 99 0.0 SSW 9 15 5 8 1028.7 1028.9 0.0
02/06:00am 2.5 -1.2 2.4 99 0.0 SSW 11 13 6 7 1028.5 1028.7 0.0
02/05:30am 2.6 -1.1 2.5 99 0.0 SSW 11 15 6 8 1028.5 1028.7 0.0
02/05:00am 2.9 -0.8 2.6 98 0.1 SSW 11 15 6 8 1028.5 1028.7 0.0
02/04:30am 3.0 -0.3 2.7 98 0.1 SSW 9 11 5 6 1028.5 1028.7 0.0
02/04:00am 3.4 0.2 3.0 97 0.2 SSW 9 13 5 7 1028.6 1028.8 0.0
02/03:30am 4.1 0.6 3.4 95 0.3 SSW 11 15 6 8 1028.8 1029.0 0.0
02/03:00am 4.2 1.0 3.3 94 0.4 S 9 13 5 7 1028.8 1029.0 0.0
02/02:30am 4.5 1.0 3.6 94 0.4 SSW 11 15 6 8 1029.0 1029.2 0.0
02/02:00am 4.6 1.2 3.9 95 0.3 SSW 11 15 6 8 1029.1 1029.3 0.0
02/01:30am 4.4 1.0 4.0 97 0.2 SSW 11 15 6 8 1029.1 1029.3 0.0
02/01:00am 4.6 1.6 3.9 95 0.3 SSW 9 11 5 6 1029.3 1029.5 0.0
02/12:30am 5.3 2.4 4.7 96 0.3 SSW 9 13 5 7 1029.7 1029.9 0.0
02/12:00am 5.3 2.1 4.9 97 0.2 S 11 15 6 8 1029.4 1029.6 0.0
 
Date/Time
EST
Temp
°C
App
Temp
°C
Dew
Point
°C
Rel
Hum
%
Delta-T
°C
Wind Press
QNH
hPa
Press
MSL
hPa
Rain since
9am
mm
Dir  Spd
km/h
Gust
km/h
Spd
kts
Gust
kts
01/11:30pm 5.2 2.3 4.8 97 0.2 S 9 15 5 8 1029.3 1029.5 0.0
01/11:00pm 5.3 2.4 4.7 96 0.3 S 9 13 5 7 1029.2 1029.4 0.0
01/10:30pm 5.4 2.5 4.5 94 0.4 S 9 13 5 7 1029.2 1029.4 0.0
01/10:00pm 6.0 3.1 4.8 92 0.5 S 9 13 5 7 1029.4 1029.6 0.0
01/09:30pm 6.5 3.2 4.8 89 0.7 S 11 15 6 8 1029.3 1029.5 0.0
01/09:00pm 7.4 3.8 5.0 85 1.1 SSW 13 17 7 9 1029.1 1029.3 0.0
01/08:30pm 8.4 4.5 5.3 81 1.4 SSW 15 20 8 11 1029.1 1029.3 0.0
01/08:00pm 8.5 5.0 5.3 80 1.4 SSW 13 19 7 10 1029.0 1029.2 0.0
01/07:30pm 8.7 5.5 5.1 78 1.6 SSW 11 17 6 9 1028.9 1029.1 0.0
01/07:00pm 8.8 5.5 4.6 75 1.8 SSW 11 13 6 7 1028.6 1028.8 0.0
01/06:30pm 9.3 6.4 4.7 73 2.1 SSW 9 11 5 6 1028.0 1028.2 0.0
01/06:00pm 9.9 7.1 5.1 72 2.2 SSW 9 11 5 6 1028.0 1028.2 0.0
01/05:30pm 11.2 8.4 5.1 66 2.8 S 9 13 5 7 1027.8 1028.0 0.0
01/05:00pm 12.6 9.4 5.1 60 3.5 S 11 15 6 8 1027.7 1027.9 0.0
01/04:30pm 13.5 9.5 4.9 56 4.0 S 15 20 8 11 1027.7 1027.9 0.0
01/04:00pm 14.1 10.4 4.7 53 4.3 S 13 19 7 10 1027.6 1027.8 0.0
01/03:30pm 14.2 9.7 4.2 51 4.6 S 17 22 9 12 1027.6 1027.8 0.0
01/03:00pm 14.4 10.4 4.7 52 4.5 S 15 22 8 12 1027.7 1027.9 0.0
01/02:30pm 14.1 9.7 4.9 54 4.3 S 17 24 9 13 1027.7 1027.9 0.0
01/02:00pm 13.9 9.5 4.8 54 4.2 S 17 28 9 15 1027.9 1028.1 0.0
01/01:30pm 13.9 10.5 6.0 59 3.8 S 13 22 7 12 1028.2 1028.4 0.0
01/01:00pm 13.5 9.4 6.4 62 3.4 SSE 17 24 9 13 1028.6 1028.8 0.0
01/12:30pm 13.0 8.8 5.7 61 3.4 SSE 17 28 9 15 1029.1 1029.3 0.0
01/12:00pm 12.9 8.9 6.7 66 3.0 SSE 17 28 9 15 1029.5 1029.7 0.0
01/11:30am 11.6 6.9 5.9 68 2.7 SSE 20 30 11 16 1029.6 1029.8 0.0
01/11:00am 11.2 6.7 5.9 70 2.5 S 19 30 10 16 1029.8 1030.0 0.0
01/10:30am 10.7 6.1 6.3 74 2.1 S 20 32 11 17 1029.8 1030.0 0.0
01/10:00am 9.7 5.5 5.7 76 1.8 S 17 30 9 16 1029.6 1029.8 0.0
01/09:30am 8.8 4.6 5.7 81 1.4 S 17 30 9 16 1029.3 1029.5 0.0
01/09:00am 7.5 3.4 6.0 90 0.7 SSE 17 24 9 13 1029.1 1029.3 0.0
01/08:30am 6.3 2.5 6.0 98 0.1 S 15 20 8 11 1028.7 1028.9 0.0
01/08:00am 5.1 1.5 5.1 100 0.0 S 13 19 7 10 1028.6 1028.7 0.0
01/07:30am 4.4 0.7 4.4 100 0.0 S 13 17 7 9 1028.4 1028.5 0.0
01/07:00am 3.8 0.4 3.8 100 0.0 S 11 17 6 9 1028.3 1028.4 0.0
01/06:30am 2.9 -0.3 2.9 100 0.0 S 9 13 5 7 1028.1 1028.2 0.0
01/06:00am 3.1 0.3 3.1 100 0.0 S 7 11 4 6 1028.0 1028.1 0.0
01/05:30am 3.1 0.3 3.0 99 0.0 S 7 9 4 5 1027.9 1028.0 0.0
01/05:00am 3.5 0.4 3.4 99 0.0 S 9 11 5 6 1027.6 1027.7 0.0
01/04:30am 3.7 0.2 3.6 99 0.0 S 11 17 6 9 1027.5 1027.6 0.0
01/04:00am 3.2 0.4 3.1 99 0.0 S 7 11 4 6 1027.5 1027.6 0.0
01/03:30am 3.1 0.2 2.7 97 0.2 SSE 7 9 4 5 1027.4 1027.5 0.0
01/03:00am 3.4 0.2 3.3 99 0.0 S 9 13 5 7 1027.5 1027.6 0.0
01/02:30am 3.4 0.6 3.3 99 0.0 SSE 7 11 4 6 1027.6 1027.7 0.0
01/02:00am 3.6 0.9 3.5 99 0.0 SSE 7 9 4 5 1027.3 1027.4 0.0
01/01:30am 3.7 0.6 3.6 99 0.0 SSE 9 11 5 6 1027.2 1027.3 0.0
01/01:00am 3.9 0.8 3.6 98 0.1 SSE 9 11 5 6 1027.3 1027.4 0.0
01/12:30am 3.8 1.0 3.1 95 0.3 SSE 7 9 4 5 1027.1 1027.2 0.0
01/12:00am 4.3 1.5 3.3 93 0.4 SSE 7 9 4 5 1027.0 1027.1 0.0
 
Date/Time
EST
Temp
°C
App
Temp
°C
Dew
Point
°C
Rel
Hum
%
Delta-T
°C
Wind Press
QNH
hPa
Press
MSL
hPa
Rain since
9am
mm
Dir  Spd
km/h
Gust
km/h
Spd
kts
Gust
kts
30/11:30pm 4.9 1.8 3.6 91 0.5 SSE 9 11 5 6 1027.1 1027.2 0.0
30/11:00pm 5.7 2.7 4.2 90 0.6 SSE 9 13 5 7 1027.0 1027.1 0.0
30/10:30pm 5.8 2.8 4.1 89 0.7 S 9 15 5 8 1026.9 1027.0 0.0
30/10:00pm 6.3 3.0 4.6 89 0.7 S 11 13 6 7 1026.8 1026.9 0.0
30/09:30pm 6.9 4.1 5.1 88 0.8 S 9 13 5 7 1026.7 1026.8 0.0
30/09:00pm 6.8 3.9 4.8 87 0.9 S 9 13 5 7 1026.6 1026.7 0.0

Other formats

Comma delimited format used in spreadsheet applications
http://www.bom.gov.au/fwo/IDV60801/IDV60801.94843.axf

JavaScript Object Notation format (JSON) in row-major order
http://www.bom.gov.au/fwo/IDV60801/IDV60801.94843.json

Data quality

Most of these data are generated automatically and are frequently updated. Quality checks on data are not normally performed. It is possible for incorrect values to appear. Refer to information at About Latest Weather Observations and please check the disclaimer before using these data.